sensor_id;sensor_type;location;lat;lon;timestamp;pressure;altitude;pressure_sealevel;temperature;humidity
18697;BME280;22617;43.690;27.956;2023-07-28T00:04:36;98678.75;;;15.94;90.14
18697;BME280;22617;43.690;27.956;2023-07-28T00:09:41;98679.47;;;15.99;89.35
18697;BME280;22617;43.690;27.956;2023-07-28T00:14:45;98683.38;;;16.14;88.73
18697;BME280;22617;43.690;27.956;2023-07-28T00:19:48;98671.97;;;16.15;87.80
18697;BME280;22617;43.690;27.956;2023-07-28T00:24:53;98667.75;;;16.09;87.28
18697;BME280;22617;43.690;27.956;2023-07-28T00:29:57;98679.44;;;16.01;86.14
18697;BME280;22617;43.690;27.956;2023-07-28T00:35:00;98686.44;;;16.00;86.02
18697;BME280;22617;43.690;27.956;2023-07-28T00:40:07;98698.44;;;16.09;86.15
18697;BME280;22617;43.690;27.956;2023-07-28T00:45:11;98697.75;;;16.02;86.16
18697;BME280;22617;43.690;27.956;2023-07-28T00:50:14;98698.94;;;15.92;85.98
18697;BME280;22617;43.690;27.956;2023-07-28T00:55:19;98693.97;;;15.83;86.00
18697;BME280;22617;43.690;27.956;2023-07-28T01:00:24;98691.56;;;15.77;85.05
18697;BME280;22617;43.690;27.956;2023-07-28T01:05:33;98684.44;;;15.81;85.56
18697;BME280;22617;43.690;27.956;2023-07-28T01:10:38;98696.00;;;15.74;85.86
18697;BME280;22617;43.690;27.956;2023-07-28T01:15:42;98696.22;;;15.67;85.93
18697;BME280;22617;43.690;27.956;2023-07-28T01:20:46;98702.72;;;15.54;86.11
18697;BME280;22617;43.690;27.956;2023-07-28T01:26:00;98702.53;;;15.60;86.37
18697;BME280;22617;43.690;27.956;2023-07-28T01:31:08;98696.38;;;15.61;85.37
18697;BME280;22617;43.690;27.956;2023-07-28T01:36:12;98699.66;;;15.69;85.70
18697;BME280;22617;43.690;27.956;2023-07-28T01:41:16;98699.59;;;15.71;85.54
18697;BME280;22617;43.690;27.956;2023-07-28T01:46:21;98713.28;;;15.53;85.14
18697;BME280;22617;43.690;27.956;2023-07-28T01:51:24;98699.38;;;15.48;85.62
18697;BME280;22617;43.690;27.956;2023-07-28T01:56:28;98703.44;;;15.59;86.03
18697;BME280;22617;43.690;27.956;2023-07-28T02:01:35;98699.06;;;15.60;85.16
18697;BME280;22617;43.690;27.956;2023-07-28T02:06:38;98705.19;;;15.59;85.21
18697;BME280;22617;43.690;27.956;2023-07-28T02:11:42;98717.94;;;15.42;84.40
18697;BME280;22617;43.690;27.956;2023-07-28T02:16:47;98726.69;;;15.42;85.61
18697;BME280;22617;43.690;27.956;2023-07-28T02:22:10;98724.06;;;15.42;85.48
18697;BME280;22617;43.690;27.956;2023-07-28T02:27:14;98731.22;;;15.36;85.79
18697;BME280;22617;43.690;27.956;2023-07-28T02:32:19;98727.66;;;15.38;86.24
18697;BME280;22617;43.690;27.956;2023-07-28T02:37:22;98730.38;;;15.35;85.41
18697;BME280;22617;43.690;27.956;2023-07-28T02:42:26;98744.22;;;15.40;85.35
18697;BME280;22617;43.690;27.956;2023-07-28T02:47:31;98737.69;;;15.24;85.41
18697;BME280;22617;43.690;27.956;2023-07-28T02:52:34;98739.22;;;15.31;85.52
18697;BME280;22617;43.690;27.956;2023-07-28T02:57:38;98754.84;;;15.37;84.30
18697;BME280;22617;43.690;27.956;2023-07-28T03:02:43;98751.38;;;15.35;83.97
18697;BME280;22617;43.690;27.956;2023-07-28T03:07:47;98750.63;;;15.30;83.71
18697;BME280;22617;43.690;27.956;2023-07-28T03:12:51;98763.34;;;15.14;83.98
18697;BME280;22617;43.690;27.956;2023-07-28T03:17:56;98766.38;;;14.98;84.26
18697;BME280;22617;43.690;27.956;2023-07-28T03:23:00;98776.81;;;15.01;84.08
18697;BME280;22617;43.690;27.956;2023-07-28T03:28:04;98771.72;;;14.95;84.87
18697;BME280;22617;43.690;27.956;2023-07-28T03:33:09;98784.22;;;14.83;86.14
18697;BME280;22617;43.690;27.956;2023-07-28T03:38:13;98792.06;;;14.85;88.63
18697;BME280;22617;43.690;27.956;2023-07-28T03:43:16;98789.25;;;14.93;89.35
18697;BME280;22617;43.690;27.956;2023-07-28T03:48:21;98796.09;;;15.00;89.58
18697;BME280;22617;43.690;27.956;2023-07-28T03:53:25;98802.97;;;15.04;89.39
18697;BME280;22617;43.690;27.956;2023-07-28T03:58:28;98791.06;;;15.24;88.97
18697;BME280;22617;43.690;27.956;2023-07-28T04:03:34;98798.59;;;15.38;88.31
18697;BME280;22617;43.690;27.956;2023-07-28T04:08:37;98808.81;;;15.15;90.50
18697;BME280;22617;43.690;27.956;2023-07-28T04:13:41;98805.06;;;15.25;91.72
18697;BME280;22617;43.690;27.956;2023-07-28T04:18:46;98818.69;;;15.39;91.24
18697;BME280;22617;43.690;27.956;2023-07-28T04:23:49;98824.69;;;15.44;90.89
18697;BME280;22617;43.690;27.956;2023-07-28T04:28:53;98829.66;;;15.55;91.67
18697;BME280;22617;43.690;27.956;2023-07-28T04:33:58;98824.22;;;15.62;92.98
18697;BME280;22617;43.690;27.956;2023-07-28T04:39:19;98818.63;;;15.75;93.21
18697;BME280;22617;43.690;27.956;2023-07-28T04:44:23;98818.22;;;15.88;93.69
18697;BME280;22617;43.690;27.956;2023-07-28T04:49:34;98821.66;;;15.92;93.31
18697;BME280;22617;43.690;27.956;2023-07-28T04:54:43;98821.38;;;16.01;94.22
18697;BME280;22617;43.690;27.956;2023-07-28T04:59:46;98820.94;;;16.16;95.55
18697;BME280;22617;43.690;27.956;2023-07-28T05:04:51;98818.94;;;16.24;95.84
18697;BME280;22617;43.690;27.956;2023-07-28T05:09:55;98813.13;;;16.42;96.16
18697;BME280;22617;43.690;27.956;2023-07-28T05:15:01;98812.41;;;16.67;96.56
18697;BME280;22617;43.690;27.956;2023-07-28T05:20:07;98813.66;;;16.83;95.30
18697;BME280;22617;43.690;27.956;2023-07-28T05:25:34;98821.34;;;17.15;94.89
18697;BME280;22617;43.690;27.956;2023-07-28T05:30:37;98832.88;;;17.37;93.70
18697;BME280;22617;43.690;27.956;2023-07-28T05:35:42;98837.81;;;17.47;91.79
18697;BME280;22617;43.690;27.956;2023-07-28T05:40:46;98829.91;;;17.73;91.98
18697;BME280;22617;43.690;27.956;2023-07-28T05:45:49;98813.44;;;17.91;90.98
18697;BME280;22617;43.690;27.956;2023-07-28T05:50:54;98816.28;;;18.08;88.62
18697;BME280;22617;43.690;27.956;2023-07-28T05:55:58;98824.31;;;18.28;86.79
18697;BME280;22617;43.690;27.956;2023-07-28T06:01:04;98819.16;;;18.49;83.67
18697;BME280;22617;43.690;27.956;2023-07-28T06:06:45;98817.16;;;18.77;83.84
18697;BME280;22617;43.690;27.956;2023-07-28T06:11:51;98830.19;;;19.03;83.75
18697;BME280;22617;43.690;27.956;2023-07-28T06:16:55;98831.16;;;19.23;82.40
18697;BME280;22617;43.690;27.956;2023-07-28T06:22:04;98824.06;;;19.45;78.15
18697;BME280;22617;43.690;27.956;2023-07-28T06:27:12;98829.22;;;19.68;76.98
18697;BME280;22617;43.690;27.956;2023-07-28T06:32:16;98832.03;;;20.04;76.95
18697;BME280;22617;43.690;27.956;2023-07-28T06:37:21;98839.78;;;20.27;75.12
18697;BME280;22617;43.690;27.956;2023-07-28T06:42:25;98829.94;;;20.50;73.10
18697;BME280;22617;43.690;27.956;2023-07-28T06:47:31;98832.47;;;20.71;71.42
18697;BME280;22617;43.690;27.956;2023-07-28T06:52:36;98842.19;;;21.07;67.18
18697;BME280;22617;43.690;27.956;2023-07-28T06:57:40;98841.47;;;21.22;69.10
18697;BME280;22617;43.690;27.956;2023-07-28T07:02:46;98859.22;;;21.39;67.69
18697;BME280;22617;43.690;27.956;2023-07-28T07:07:51;98859.13;;;21.57;64.51
18697;BME280;22617;43.690;27.956;2023-07-28T07:12:56;98848.97;;;21.83;61.99
18697;BME280;22617;43.690;27.956;2023-07-28T07:18:00;98851.63;;;22.00;61.41
18697;BME280;22617;43.690;27.956;2023-07-28T07:23:05;98857.38;;;22.08;59.64
18697;BME280;22617;43.690;27.956;2023-07-28T07:28:09;98859.53;;;22.34;59.72
18697;BME280;22617;43.690;27.956;2023-07-28T07:33:12;98850.84;;;22.64;57.30
18697;BME280;22617;43.690;27.956;2023-07-28T07:38:17;98858.56;;;22.84;56.78
18697;BME280;22617;43.690;27.956;2023-07-28T07:43:21;98862.41;;;22.94;54.32
18697;BME280;22617;43.690;27.956;2023-07-28T07:48:24;98864.19;;;23.25;54.62
18697;BME280;22617;43.690;27.956;2023-07-28T07:53:29;98857.56;;;23.48;56.20
18697;BME280;22617;43.690;27.956;2023-07-28T07:58:33;98851.56;;;23.28;53.42
18697;BME280;22617;43.690;27.956;2023-07-28T08:03:37;98847.00;;;23.46;52.86
18697;BME280;22617;43.690;27.956;2023-07-28T08:08:42;98850.63;;;23.89;51.04
18697;BME280;22617;43.690;27.956;2023-07-28T08:13:45;98852.19;;;24.07;50.95
18697;BME280;22617;43.690;27.956;2023-07-28T08:18:50;98856.09;;;24.16;51.20
18697;BME280;22617;43.690;27.956;2023-07-28T08:23:55;98855.34;;;24.28;49.99
18697;BME280;22617;43.690;27.956;2023-07-28T08:28:59;98858.97;;;24.55;50.10
18697;BME280;22617;43.690;27.956;2023-07-28T08:34:02;98853.13;;;23.92;52.13
18697;BME280;22617;43.690;27.956;2023-07-28T08:39:07;98855.22;;;24.72;51.15
18697;BME280;22617;43.690;27.956;2023-07-28T08:44:11;98852.06;;;24.80;49.32
18697;BME280;22617;43.690;27.956;2023-07-28T08:49:15;98851.22;;;25.20;48.19
18697;BME280;22617;43.690;27.956;2023-07-28T08:54:20;98862.50;;;25.11;48.08
18697;BME280;22617;43.690;27.956;2023-07-28T08:59:25;98851.19;;;25.47;48.08
18697;BME280;22617;43.690;27.956;2023-07-28T09:04:29;98838.81;;;25.98;49.76
18697;BME280;22617;43.690;27.956;2023-07-28T09:09:35;98841.28;;;26.14;48.65
18697;BME280;22617;43.690;27.956;2023-07-28T09:14:39;98843.00;;;25.50;47.01
18697;BME280;22617;43.690;27.956;2023-07-28T09:19:50;98841.38;;;25.99;45.60
18697;BME280;22617;43.690;27.956;2023-07-28T09:24:56;98838.28;;;26.56;47.28
18697;BME280;22617;43.690;27.956;2023-07-28T09:30:00;98830.97;;;27.07;46.33
18697;BME280;22617;43.690;27.956;2023-07-28T09:35:06;98826.72;;;27.28;45.65
18697;BME280;22617;43.690;27.956;2023-07-28T09:40:17;98824.69;;;27.43;44.46
18697;BME280;22617;43.690;27.956;2023-07-28T09:45:22;98827.56;;;27.53;45.41
18697;BME280;22617;43.690;27.956;2023-07-28T09:50:32;98826.38;;;26.60;41.97
18697;BME280;22617;43.690;27.956;2023-07-28T09:55:39;98830.63;;;26.75;43.33
18697;BME280;22617;43.690;27.956;2023-07-28T10:00:44;98829.81;;;27.46;44.04
18697;BME280;22617;43.690;27.956;2023-07-28T10:05:48;98828.75;;;27.49;42.52
18697;BME280;22617;43.690;27.956;2023-07-28T10:10:55;98831.47;;;27.36;41.22
18697;BME280;22617;43.690;27.956;2023-07-28T10:16:01;98831.50;;;27.71;40.38
18697;BME280;22617;43.690;27.956;2023-07-28T10:21:05;98816.53;;;28.14;42.37
18697;BME280;22617;43.690;27.956;2023-07-28T10:26:11;98818.59;;;28.33;41.78
18697;BME280;22617;43.690;27.956;2023-07-28T10:31:29;98821.94;;;27.91;41.98
18697;BME280;22617;43.690;27.956;2023-07-28T10:36:34;98803.97;;;28.37;41.98
18697;BME280;22617;43.690;27.956;2023-07-28T10:41:40;98811.88;;;28.16;40.81
18697;BME280;22617;43.690;27.956;2023-07-28T10:46:51;98791.38;;;28.60;39.50
18697;BME280;22617;43.690;27.956;2023-07-28T10:51:55;98782.50;;;28.26;40.21
18697;BME280;22617;43.690;27.956;2023-07-28T10:57:03;98783.94;;;28.63;40.35
18697;BME280;22617;43.690;27.956;2023-07-28T11:02:14;98777.16;;;29.02;42.30
18697;BME280;22617;43.690;27.956;2023-07-28T11:07:18;98778.34;;;29.10;39.69
18697;BME280;22617;43.690;27.956;2023-07-28T11:12:24;98775.00;;;28.96;40.10
18697;BME280;22617;43.690;27.956;2023-07-28T11:17:28;98772.41;;;29.06;40.19
18697;BME280;22617;43.690;27.956;2023-07-28T11:22:32;98768.94;;;29.15;41.04
18697;BME280;22617;43.690;27.956;2023-07-28T11:27:40;98766.56;;;29.33;38.87
18697;BME280;22617;43.690;27.956;2023-07-28T11:32:46;98763.00;;;28.57;40.12
18697;BME280;22617;43.690;27.956;2023-07-28T11:37:51;98754.03;;;28.90;39.11
18697;BME280;22617;43.690;27.956;2023-07-28T11:42:57;98750.41;;;29.44;40.34
18697;BME280;22617;43.690;27.956;2023-07-28T11:48:02;98744.03;;;29.45;38.35
18697;BME280;22617;43.690;27.956;2023-07-28T11:53:08;98745.16;;;29.42;39.74
18697;BME280;22617;43.690;27.956;2023-07-28T11:58:14;98737.31;;;29.19;39.03
18697;BME280;22617;43.690;27.956;2023-07-28T12:03:18;98737.88;;;28.47;39.76
18697;BME280;22617;43.690;27.956;2023-07-28T12:08:33;98732.84;;;28.54;40.20
18697;BME280;22617;43.690;27.956;2023-07-28T12:13:48;98721.16;;;28.98;40.80
18697;BME280;22617;43.690;27.956;2023-07-28T12:18:58;98716.34;;;29.13;40.96
18697;BME280;22617;43.690;27.956;2023-07-28T12:24:02;98712.63;;;29.66;39.00
18697;BME280;22617;43.690;27.956;2023-07-28T12:29:10;98717.72;;;29.07;37.93
18697;BME280;22617;43.690;27.956;2023-07-28T12:34:13;98712.75;;;29.65;39.54
18697;BME280;22617;43.690;27.956;2023-07-28T12:39:20;98707.50;;;29.22;38.30
18697;BME280;22617;43.690;27.956;2023-07-28T12:44:28;98686.31;;;30.21;40.60
18697;BME280;22617;43.690;27.956;2023-07-28T12:49:34;98689.31;;;29.67;38.11
18697;BME280;22617;43.690;27.956;2023-07-28T12:54:38;98684.28;;;29.53;37.62
18697;BME280;22617;43.690;27.956;2023-07-28T12:59:47;98675.03;;;29.45;38.12
18697;BME280;22617;43.690;27.956;2023-07-28T13:04:54;98661.09;;;29.31;37.65
18697;BME280;22617;43.690;27.956;2023-07-28T13:09:57;98659.22;;;29.73;38.20
18697;BME280;22617;43.690;27.956;2023-07-28T13:15:02;98663.38;;;29.86;38.86
18697;BME280;22617;43.690;27.956;2023-07-28T13:20:08;98653.66;;;29.65;37.50
18697;BME280;22617;43.690;27.956;2023-07-28T13:25:13;98654.41;;;29.04;38.67
18697;BME280;22617;43.690;27.956;2023-07-28T13:30:18;98652.19;;;29.51;38.63
18697;BME280;22617;43.690;27.956;2023-07-28T13:35:22;98650.03;;;29.75;38.08
18697;BME280;22617;43.690;27.956;2023-07-28T13:40:27;98654.88;;;29.10;37.94
18697;BME280;22617;43.690;27.956;2023-07-28T13:45:32;98644.31;;;29.59;38.17
18697;BME280;22617;43.690;27.956;2023-07-28T13:50:36;98636.06;;;29.51;37.44
18697;BME280;22617;43.690;27.956;2023-07-28T13:55:39;98642.66;;;29.26;38.28
18697;BME280;22617;43.690;27.956;2023-07-28T14:00:44;98637.78;;;29.11;39.03
18697;BME280;22617;43.690;27.956;2023-07-28T14:05:48;98639.53;;;28.80;39.71
18697;BME280;22617;43.690;27.956;2023-07-28T14:10:52;98633.13;;;28.28;39.81
18697;BME280;22617;43.690;27.956;2023-07-28T14:15:57;98634.28;;;28.46;40.44
18697;BME280;22617;43.690;27.956;2023-07-28T14:21:01;98612.69;;;28.80;39.97
18697;BME280;22617;43.690;27.956;2023-07-28T14:26:05;98619.31;;;28.76;39.96
18697;BME280;22617;43.690;27.956;2023-07-28T14:31:10;98615.94;;;28.08;39.46
18697;BME280;22617;43.690;27.956;2023-07-28T14:36:14;98621.44;;;28.18;39.76
18697;BME280;22617;43.690;27.956;2023-07-28T14:41:18;98614.13;;;28.20;39.34
18697;BME280;22617;43.690;27.956;2023-07-28T14:46:23;98609.75;;;28.19;39.27
18697;BME280;22617;43.690;27.956;2023-07-28T14:51:27;98598.00;;;28.31;39.91
18697;BME280;22617;43.690;27.956;2023-07-28T14:56:31;98592.78;;;28.30;39.09
18697;BME280;22617;43.690;27.956;2023-07-28T15:01:36;98593.97;;;27.60;40.33
18697;BME280;22617;43.690;27.956;2023-07-28T15:06:40;98588.63;;;27.60;41.39
18697;BME280;22617;43.690;27.956;2023-07-28T15:11:46;98576.03;;;27.83;40.48
18697;BME280;22617;43.690;27.956;2023-07-28T15:16:51;98581.31;;;27.62;39.16
18697;BME280;22617;43.690;27.956;2023-07-28T15:21:55;98582.13;;;27.41;41.05
18697;BME280;22617;43.690;27.956;2023-07-28T15:26:59;98579.56;;;27.39;40.52
18697;BME280;22617;43.690;27.956;2023-07-28T15:32:04;98571.56;;;27.28;40.87
18697;BME280;22617;43.690;27.956;2023-07-28T15:37:08;98574.94;;;27.08;41.37
18697;BME280;22617;43.690;27.956;2023-07-28T15:42:11;98568.59;;;26.98;40.77
18697;BME280;22617;43.690;27.956;2023-07-28T15:47:17;98580.28;;;27.08;41.08
18697;BME280;22617;43.690;27.956;2023-07-28T15:52:20;98575.88;;;26.96;41.27
18697;BME280;22617;43.690;27.956;2023-07-28T15:57:24;98576.41;;;26.66;41.36
18697;BME280;22617;43.690;27.956;2023-07-28T16:02:29;98577.72;;;26.60;42.51
18697;BME280;22617;43.690;27.956;2023-07-28T16:07:32;98572.72;;;26.56;41.61
18697;BME280;22617;43.690;27.956;2023-07-28T16:12:36;98575.25;;;26.46;42.30
18697;BME280;22617;43.690;27.956;2023-07-28T16:17:41;98582.75;;;26.41;42.11
18697;BME280;22617;43.690;27.956;2023-07-28T16:22:45;98584.31;;;26.20;43.56
18697;BME280;22617;43.690;27.956;2023-07-28T16:27:48;98595.28;;;25.80;48.79
18697;BME280;22617;43.690;27.956;2023-07-28T16:32:53;98588.38;;;25.14;53.21
18697;BME280;22617;43.690;27.956;2023-07-28T16:37:57;98599.53;;;24.69;54.67
18697;BME280;22617;43.690;27.956;2023-07-28T16:43:00;98594.75;;;24.47;54.72
18697;BME280;22617;43.690;27.956;2023-07-28T16:48:05;98597.91;;;24.13;56.04
18697;BME280;22617;43.690;27.956;2023-07-28T16:53:09;98600.44;;;24.02;57.15
18697;BME280;22617;43.690;27.956;2023-07-28T16:58:12;98604.81;;;23.48;59.00
18697;BME280;22617;43.690;27.956;2023-07-28T17:03:17;98600.25;;;23.35;59.78
18697;BME280;22617;43.690;27.956;2023-07-28T17:08:21;98620.53;;;23.08;61.29
18697;BME280;22617;43.690;27.956;2023-07-28T17:13:24;98613.59;;;22.91;62.27
18697;BME280;22617;43.690;27.956;2023-07-28T17:18:29;98618.38;;;22.55;64.20
18697;BME280;22617;43.690;27.956;2023-07-28T17:23:33;98618.94;;;22.30;65.03
18697;BME280;22617;43.690;27.956;2023-07-28T17:28:36;98624.03;;;22.19;66.10
18697;BME280;22617;43.690;27.956;2023-07-28T17:33:42;98621.13;;;22.08;66.27
18697;BME280;22617;43.690;27.956;2023-07-28T17:38:45;98633.53;;;21.92;67.51
18697;BME280;22617;43.690;27.956;2023-07-28T17:43:49;98636.16;;;21.76;67.77
18697;BME280;22617;43.690;27.956;2023-07-28T17:48:54;98634.78;;;21.69;68.56
18697;BME280;22617;43.690;27.956;2023-07-28T17:53:58;98630.06;;;21.58;68.88
18697;BME280;22617;43.690;27.956;2023-07-28T17:59:01;98635.81;;;21.66;68.39
18697;BME280;22617;43.690;27.956;2023-07-28T18:04:06;98646.47;;;21.49;68.97
18697;BME280;22617;43.690;27.956;2023-07-28T18:09:10;98649.78;;;21.37;68.88
18697;BME280;22617;43.690;27.956;2023-07-28T18:14:13;98652.31;;;21.23;69.44
18697;BME280;22617;43.690;27.956;2023-07-28T18:19:18;98647.78;;;21.08;69.55
18697;BME280;22617;43.690;27.956;2023-07-28T18:24:22;98647.78;;;21.08;69.90
18697;BME280;22617;43.690;27.956;2023-07-28T18:29:25;98652.63;;;21.00;70.22
18697;BME280;22617;43.690;27.956;2023-07-28T18:34:30;98655.03;;;21.04;69.87
18697;BME280;22617;43.690;27.956;2023-07-28T18:39:34;98666.59;;;20.86;70.57
18697;BME280;22617;43.690;27.956;2023-07-28T18:44:39;98668.06;;;20.74;71.00
18697;BME280;22617;43.690;27.956;2023-07-28T18:49:44;98665.81;;;20.84;71.13
18697;BME280;22617;43.690;27.956;2023-07-28T18:54:47;98658.56;;;20.70;71.27
18697;BME280;22617;43.690;27.956;2023-07-28T18:59:51;98667.91;;;20.77;71.54
18697;BME280;22617;43.690;27.956;2023-07-28T19:04:56;98662.13;;;20.86;71.27
18697;BME280;22617;43.690;27.956;2023-07-28T19:09:59;98658.09;;;20.79;71.21
18697;BME280;22617;43.690;27.956;2023-07-28T19:15:06;98661.63;;;20.44;72.16
18697;BME280;22617;43.690;27.956;2023-07-28T19:20:12;98661.50;;;20.28;72.79
18697;BME280;22617;43.690;27.956;2023-07-28T19:25:17;98667.03;;;20.05;73.41
18697;BME280;22617;43.690;27.956;2023-07-28T19:30:21;98662.72;;;19.85;74.04
18697;BME280;22617;43.690;27.956;2023-07-28T19:35:26;98663.41;;;19.89;74.13
18697;BME280;22617;43.690;27.956;2023-07-28T19:40:31;98660.19;;;19.82;74.24
18697;BME280;22617;43.690;27.956;2023-07-28T19:45:34;98654.53;;;19.71;74.46
18697;BME280;22617;43.690;27.956;2023-07-28T19:50:39;98646.53;;;19.54;74.82
18697;BME280;22617;43.690;27.956;2023-07-28T19:55:48;98656.19;;;19.55;74.95
18697;BME280;22617;43.690;27.956;2023-07-28T20:00:51;98639.94;;;19.44;75.39
18697;BME280;22617;43.690;27.956;2023-07-28T20:05:56;98645.41;;;19.39;75.28
18697;BME280;22617;43.690;27.956;2023-07-28T20:11:00;98639.69;;;19.30;75.44
18697;BME280;22617;43.690;27.956;2023-07-28T20:16:04;98642.47;;;19.27;75.59
18697;BME280;22617;43.690;27.956;2023-07-28T20:21:09;98641.31;;;19.13;76.04
18697;BME280;22617;43.690;27.956;2023-07-28T20:26:13;98645.84;;;19.10;75.78
18697;BME280;22617;43.690;27.956;2023-07-28T20:31:16;98642.63;;;19.03;76.04
18697;BME280;22617;43.690;27.956;2023-07-28T20:36:22;98646.31;;;18.99;75.76
18697;BME280;22617;43.690;27.956;2023-07-28T20:41:27;98636.69;;;18.98;76.11
18697;BME280;22617;43.690;27.956;2023-07-28T20:46:31;98646.72;;;19.10;75.48
18697;BME280;22617;43.690;27.956;2023-07-28T20:51:36;98646.28;;;19.20;75.49
18697;BME280;22617;43.690;27.956;2023-07-28T20:56:40;98653.25;;;19.02;75.61
18697;BME280;22617;43.690;27.956;2023-07-28T21:01:43;98654.06;;;19.04;76.05
18697;BME280;22617;43.690;27.956;2023-07-28T21:06:48;98656.16;;;19.16;75.32
18697;BME280;22617;43.690;27.956;2023-07-28T21:11:52;98653.88;;;19.08;75.68
18697;BME280;22617;43.690;27.956;2023-07-28T21:16:55;98644.88;;;18.92;76.47
18697;BME280;22617;43.690;27.956;2023-07-28T21:22:00;98643.41;;;18.85;76.41
18697;BME280;22617;43.690;27.956;2023-07-28T21:27:04;98641.56;;;18.87;76.48
18697;BME280;22617;43.690;27.956;2023-07-28T21:32:08;98643.03;;;18.74;77.70
18697;BME280;22617;43.690;27.956;2023-07-28T21:37:13;98646.91;;;18.86;77.97
18697;BME280;22617;43.690;27.956;2023-07-28T21:42:17;98643.34;;;18.87;77.91
18697;BME280;22617;43.690;27.956;2023-07-28T21:47:21;98639.44;;;18.95;77.83
18697;BME280;22617;43.690;27.956;2023-07-28T21:52:25;98646.41;;;18.98;77.27
18697;BME280;22617;43.690;27.956;2023-07-28T21:57:29;98644.72;;;19.15;78.90
18697;BME280;22617;43.690;27.956;2023-07-28T22:02:33;98641.31;;;18.93;79.90
18697;BME280;22617;43.690;27.956;2023-07-28T22:07:38;98640.41;;;18.94;81.17
18697;BME280;22617;43.690;27.956;2023-07-28T22:12:42;98638.94;;;18.87;82.39
18697;BME280;22617;43.690;27.956;2023-07-28T22:17:45;98637.63;;;18.97;80.57
18697;BME280;22617;43.690;27.956;2023-07-28T22:22:50;98635.94;;;18.95;79.98
18697;BME280;22617;43.690;27.956;2023-07-28T22:27:54;98634.06;;;18.78;79.93
18697;BME280;22617;43.690;27.956;2023-07-28T22:32:59;98621.91;;;18.74;81.00
18697;BME280;22617;43.690;27.956;2023-07-28T22:38:04;98637.88;;;18.71;80.92
18697;BME280;22617;43.690;27.956;2023-07-28T22:43:08;98623.69;;;18.73;80.93
18697;BME280;22617;43.690;27.956;2023-07-28T22:48:11;98612.78;;;18.61;81.62
18697;BME280;22617;43.690;27.956;2023-07-28T22:53:17;98612.84;;;18.59;82.14
18697;BME280;22617;43.690;27.956;2023-07-28T22:58:21;98606.53;;;18.63;81.89
18697;BME280;22617;43.690;27.956;2023-07-28T23:03:24;98602.31;;;18.59;82.58
18697;BME280;22617;43.690;27.956;2023-07-28T23:08:29;98601.50;;;18.57;82.47
18697;BME280;22617;43.690;27.956;2023-07-28T23:13:33;98599.03;;;18.53;81.94
18697;BME280;22617;43.690;27.956;2023-07-28T23:18:37;98603.88;;;18.42;81.91
18697;BME280;22617;43.690;27.956;2023-07-28T23:23:41;98600.38;;;18.63;81.89
18697;BME280;22617;43.690;27.956;2023-07-28T23:28:45;98591.09;;;18.53;81.71
18697;BME280;22617;43.690;27.956;2023-07-28T23:33:48;98592.81;;;18.55;82.05
18697;BME280;22617;43.690;27.956;2023-07-28T23:38:53;98595.84;;;18.45;81.87
18697;BME280;22617;43.690;27.956;2023-07-28T23:43:57;98593.59;;;18.36;82.83
18697;BME280;22617;43.690;27.956;2023-07-28T23:49:01;98595.69;;;18.27;83.04
18697;BME280;22617;43.690;27.956;2023-07-28T23:54:06;98591.53;;;18.22;83.52
18697;BME280;22617;43.690;27.956;2023-07-28T23:59:10;98597.06;;;18.16;83.15
